sensor_id;sensor_type;location;lat;lon;timestamp;temperature;humidity
10883;DHT22;5494;51.796;10.952;2022-12-19T00:00:35;2.30;99.90
10883;DHT22;5494;51.796;10.952;2022-12-19T00:03:03;2.30;99.90
10883;DHT22;5494;51.796;10.952;2022-12-19T00:05:35;2.30;99.90
10883;DHT22;5494;51.796;10.952;2022-12-19T00:08:05;2.30;99.90
10883;DHT22;5494;51.796;10.952;2022-12-19T00:10:53;2.20;99.90
10883;DHT22;5494;51.796;10.952;2022-12-19T00:13:23;2.30;99.90
10883;DHT22;5494;51.796;10.952;2022-12-19T00:15:54;2.30;99.90
10883;DHT22;5494;51.796;10.952;2022-12-19T00:18:26;2.20;99.90
10883;DHT22;5494;51.796;10.952;2022-12-19T00:20:58;2.20;99.90
10883;DHT22;5494;51.796;10.952;2022-12-19T00:23:29;2.20;99.90
10883;DHT22;5494;51.796;10.952;2022-12-19T00:26:11;2.20;99.90
10883;DHT22;5494;51.796;10.952;2022-12-19T00:28:41;2.20;99.90
10883;DHT22;5494;51.796;10.952;2022-12-19T00:31:11;2.20;99.90
10883;DHT22;5494;51.796;10.952;2022-12-19T00:33:46;2.20;99.90
10883;DHT22;5494;51.796;10.952;2022-12-19T00:36:16;2.20;99.90
10883;DHT22;5494;51.796;10.952;2022-12-19T00:38:50;2.20;99.90
10883;DHT22;5494;51.796;10.952;2022-12-19T00:41:23;2.20;99.90
10883;DHT22;5494;51.796;10.952;2022-12-19T00:43:56;2.20;99.90
10883;DHT22;5494;51.796;10.952;2022-12-19T00:46:26;2.20;99.90
10883;DHT22;5494;51.796;10.952;2022-12-19T00:48:56;2.20;99.90
10883;DHT22;5494;51.796;10.952;2022-12-19T00:51:26;2.20;99.90
10883;DHT22;5494;51.796;10.952;2022-12-19T00:53:56;2.20;99.90
10883;DHT22;5494;51.796;10.952;2022-12-19T00:56:28;2.20;99.90
10883;DHT22;5494;51.796;10.952;2022-12-19T00:59:00;2.20;99.90
10883;DHT22;5494;51.796;10.952;2022-12-19T01:01:31;2.20;99.90
10883;DHT22;5494;51.796;10.952;2022-12-19T01:04:03;2.30;99.90
10883;DHT22;5494;51.796;10.952;2022-12-19T01:06:52;2.20;99.90
10883;DHT22;5494;51.796;10.952;2022-12-19T01:09:30;2.20;99.90
10883;DHT22;5494;51.796;10.952;2022-12-19T01:12:01;2.20;99.90
10883;DHT22;5494;51.796;10.952;2022-12-19T01:14:52;2.30;99.90
10883;DHT22;5494;51.796;10.952;2022-12-19T01:17:29;2.30;99.90
10883;DHT22;5494;51.796;10.952;2022-12-19T01:20:07;2.20;99.90
10883;DHT22;5494;51.796;10.952;2022-12-19T01:22:36;2.30;99.90
10883;DHT22;5494;51.796;10.952;2022-12-19T01:25:05;2.30;99.90
10883;DHT22;5494;51.796;10.952;2022-12-19T01:27:35;2.40;99.90
10883;DHT22;5494;51.796;10.952;2022-12-19T01:30:06;2.50;99.90
10883;DHT22;5494;51.796;10.952;2022-12-19T01:32:35;2.50;99.90
10883;DHT22;5494;51.796;10.952;2022-12-19T01:35:04;2.60;99.90
10883;DHT22;5494;51.796;10.952;2022-12-19T01:37:47;2.70;99.90
10883;DHT22;5494;51.796;10.952;2022-12-19T01:40:15;2.80;99.90
10883;DHT22;5494;51.796;10.952;2022-12-19T01:42:45;2.80;99.90
10883;DHT22;5494;51.796;10.952;2022-12-19T01:45:24;2.80;99.90
10883;DHT22;5494;51.796;10.952;2022-12-19T01:48:06;2.80;99.90
10883;DHT22;5494;51.796;10.952;2022-12-19T01:50:50;2.80;99.90
10883;DHT22;5494;51.796;10.952;2022-12-19T01:53:32;2.80;99.90
10883;DHT22;5494;51.796;10.952;2022-12-19T01:56:15;2.70;99.90
10883;DHT22;5494;51.796;10.952;2022-12-19T01:58:47;2.60;99.90
10883;DHT22;5494;51.796;10.952;2022-12-19T02:01:35;2.70;99.90
10883;DHT22;5494;51.796;10.952;2022-12-19T02:04:20;2.70;99.90
10883;DHT22;5494;51.796;10.952;2022-12-19T02:06:53;2.60;99.90
10883;DHT22;5494;51.796;10.952;2022-12-19T02:09:23;3.40;99.90
10883;DHT22;5494;51.796;10.952;2022-12-19T02:11:51;2.70;99.90
10883;DHT22;5494;51.796;10.952;2022-12-19T02:14:22;2.70;99.90
10883;DHT22;5494;51.796;10.952;2022-12-19T02:16:53;2.70;99.90
10883;DHT22;5494;51.796;10.952;2022-12-19T02:23:26;2.80;99.90
10883;DHT22;5494;51.796;10.952;2022-12-19T02:26:47;2.80;99.90
10883;DHT22;5494;51.796;10.952;2022-12-19T02:32:47;2.70;99.90
10883;DHT22;5494;51.796;10.952;2022-12-19T02:35:30;2.80;99.90
10883;DHT22;5494;51.796;10.952;2022-12-19T02:38:12;2.80;99.90
10883;DHT22;5494;51.796;10.952;2022-12-19T02:40:49;2.80;99.90
10883;DHT22;5494;51.796;10.952;2022-12-19T02:43:26;2.90;99.90
10883;DHT22;5494;51.796;10.952;2022-12-19T02:45:58;2.90;99.90
10883;DHT22;5494;51.796;10.952;2022-12-19T02:48:33;3.00;99.90
10883;DHT22;5494;51.796;10.952;2022-12-19T02:51:04;3.00;99.90
10883;DHT22;5494;51.796;10.952;2022-12-19T02:53:35;3.00;99.90
10883;DHT22;5494;51.796;10.952;2022-12-19T02:56:20;3.00;99.90
10883;DHT22;5494;51.796;10.952;2022-12-19T02:59:07;3.10;99.90
10883;DHT22;5494;51.796;10.952;2022-12-19T03:01:51;3.20;99.90
10883;DHT22;5494;51.796;10.952;2022-12-19T03:04:36;3.20;99.90
10883;DHT22;5494;51.796;10.952;2022-12-19T03:07:21;3.10;99.90
10883;DHT22;5494;51.796;10.952;2022-12-19T03:10:04;3.00;99.90
10883;DHT22;5494;51.796;10.952;2022-12-19T03:12:46;3.00;99.90
10883;DHT22;5494;51.796;10.952;2022-12-19T03:15:18;3.00;99.90
10883;DHT22;5494;51.796;10.952;2022-12-19T03:17:47;3.10;99.90
10883;DHT22;5494;51.796;10.952;2022-12-19T03:20:25;3.10;99.90
10883;DHT22;5494;51.796;10.952;2022-12-19T03:23:00;3.10;99.90
10883;DHT22;5494;51.796;10.952;2022-12-19T03:25:29;3.00;99.90
10883;DHT22;5494;51.796;10.952;2022-12-19T03:28:03;3.10;99.90
10883;DHT22;5494;51.796;10.952;2022-12-19T03:30:39;3.10;99.90
10883;DHT22;5494;51.796;10.952;2022-12-19T03:33:10;3.00;99.90
10883;DHT22;5494;51.796;10.952;2022-12-19T03:35:42;2.90;99.90
10883;DHT22;5494;51.796;10.952;2022-12-19T03:38:14;3.00;99.90
10883;DHT22;5494;51.796;10.952;2022-12-19T03:40:45;3.00;99.90
10883;DHT22;5494;51.796;10.952;2022-12-19T03:43:16;3.00;99.90
10883;DHT22;5494;51.796;10.952;2022-12-19T03:45:51;3.10;99.90
10883;DHT22;5494;51.796;10.952;2022-12-19T03:48:26;3.20;99.90
10883;DHT22;5494;51.796;10.952;2022-12-19T03:51:08;3.20;99.90
10883;DHT22;5494;51.796;10.952;2022-12-19T03:53:52;3.20;99.90
10883;DHT22;5494;51.796;10.952;2022-12-19T03:56:35;3.20;99.90
10883;DHT22;5494;51.796;10.952;2022-12-19T03:59:12;3.20;99.90
10883;DHT22;5494;51.796;10.952;2022-12-19T04:01:44;3.10;99.90
10883;DHT22;5494;51.796;10.952;2022-12-19T04:04:15;3.10;99.90
10883;DHT22;5494;51.796;10.952;2022-12-19T04:06:47;3.10;99.90
10883;DHT22;5494;51.796;10.952;2022-12-19T04:09:16;3.20;99.90
10883;DHT22;5494;51.796;10.952;2022-12-19T04:11:50;3.20;99.90
10883;DHT22;5494;51.796;10.952;2022-12-19T04:14:28;3.20;99.90
10883;DHT22;5494;51.796;10.952;2022-12-19T04:17:05;3.40;99.90
10883;DHT22;5494;51.796;10.952;2022-12-19T04:19:44;3.40;99.90
10883;DHT22;5494;51.796;10.952;2022-12-19T04:22:25;3.50;99.90
10883;DHT22;5494;51.796;10.952;2022-12-19T04:24:58;3.50;99.90
10883;DHT22;5494;51.796;10.952;2022-12-19T04:27:29;3.60;99.90
10883;DHT22;5494;51.796;10.952;2022-12-19T04:30:01;3.60;99.90
10883;DHT22;5494;51.796;10.952;2022-12-19T04:32:33;3.50;99.90
10883;DHT22;5494;51.796;10.952;2022-12-19T04:35:03;3.60;99.90
10883;DHT22;5494;51.796;10.952;2022-12-19T04:37:33;3.50;99.90
10883;DHT22;5494;51.796;10.952;2022-12-19T04:40:02;3.50;99.90
10883;DHT22;5494;51.796;10.952;2022-12-19T04:42:31;3.40;99.90
10883;DHT22;5494;51.796;10.952;2022-12-19T04:45:00;3.40;99.90
10883;DHT22;5494;51.796;10.952;2022-12-19T04:47:29;3.50;99.90
10883;DHT22;5494;51.796;10.952;2022-12-19T04:49:57;3.40;99.90
10883;DHT22;5494;51.796;10.952;2022-12-19T04:52:25;3.40;99.90
10883;DHT22;5494;51.796;10.952;2022-12-19T04:54:54;3.40;99.90
10883;DHT22;5494;51.796;10.952;2022-12-19T04:57:22;3.40;99.90
10883;DHT22;5494;51.796;10.952;2022-12-19T04:59:50;3.30;99.90
10883;DHT22;5494;51.796;10.952;2022-12-19T05:02:18;3.30;99.90
10883;DHT22;5494;51.796;10.952;2022-12-19T05:04:46;3.30;99.90
10883;DHT22;5494;51.796;10.952;2022-12-19T05:07:15;3.30;99.90
10883;DHT22;5494;51.796;10.952;2022-12-19T05:09:43;3.40;99.90
10883;DHT22;5494;51.796;10.952;2022-12-19T05:12:13;3.40;99.90
10883;DHT22;5494;51.796;10.952;2022-12-19T05:14:41;3.50;99.90
10883;DHT22;5494;51.796;10.952;2022-12-19T05:17:09;3.60;99.90
10883;DHT22;5494;51.796;10.952;2022-12-19T05:19:37;3.60;99.90
10883;DHT22;5494;51.796;10.952;2022-12-19T05:22:05;3.60;99.90
10883;DHT22;5494;51.796;10.952;2022-12-19T05:24:33;3.70;99.90
10883;DHT22;5494;51.796;10.952;2022-12-19T05:27:01;3.70;99.90
10883;DHT22;5494;51.796;10.952;2022-12-19T05:29:31;3.80;99.90
10883;DHT22;5494;51.796;10.952;2022-12-19T05:32:00;3.80;99.90
10883;DHT22;5494;51.796;10.952;2022-12-19T05:34:28;3.80;99.90
10883;DHT22;5494;51.796;10.952;2022-12-19T05:36:56;3.70;99.90
10883;DHT22;5494;51.796;10.952;2022-12-19T05:39:25;3.70;99.90
10883;DHT22;5494;51.796;10.952;2022-12-19T05:41:54;3.70;99.90
10883;DHT22;5494;51.796;10.952;2022-12-19T05:44:23;3.80;99.90
10883;DHT22;5494;51.796;10.952;2022-12-19T05:46:53;3.80;99.90
10883;DHT22;5494;51.796;10.952;2022-12-19T05:49:21;3.80;99.90
10883;DHT22;5494;51.796;10.952;2022-12-19T05:51:50;3.70;99.90
10883;DHT22;5494;51.796;10.952;2022-12-19T05:54:18;3.70;99.90
10883;DHT22;5494;51.796;10.952;2022-12-19T05:56:47;3.60;99.90
10883;DHT22;5494;51.796;10.952;2022-12-19T05:59:17;3.60;99.90
10883;DHT22;5494;51.796;10.952;2022-12-19T06:01:45;3.50;99.90
10883;DHT22;5494;51.796;10.952;2022-12-19T06:04:15;3.40;99.90
10883;DHT22;5494;51.796;10.952;2022-12-19T06:06:43;3.30;99.90
10883;DHT22;5494;51.796;10.952;2022-12-19T06:09:11;3.20;99.90
10883;DHT22;5494;51.796;10.952;2022-12-19T06:11:39;3.10;99.90
10883;DHT22;5494;51.796;10.952;2022-12-19T06:14:07;3.00;99.90
10883;DHT22;5494;51.796;10.952;2022-12-19T06:16:35;3.00;99.90
10883;DHT22;5494;51.796;10.952;2022-12-19T06:19:03;3.00;99.90
10883;DHT22;5494;51.796;10.952;2022-12-19T06:21:33;3.00;99.90
10883;DHT22;5494;51.796;10.952;2022-12-19T06:24:11;3.00;99.90
10883;DHT22;5494;51.796;10.952;2022-12-19T06:26:40;3.00;99.90
10883;DHT22;5494;51.796;10.952;2022-12-19T06:29:08;3.00;99.90
10883;DHT22;5494;51.796;10.952;2022-12-19T06:31:36;3.10;99.90
10883;DHT22;5494;51.796;10.952;2022-12-19T06:34:04;3.20;99.90
10883;DHT22;5494;51.796;10.952;2022-12-19T06:36:34;3.20;99.90
10883;DHT22;5494;51.796;10.952;2022-12-19T06:39:02;3.20;99.90
10883;DHT22;5494;51.796;10.952;2022-12-19T06:41:30;3.10;99.90
10883;DHT22;5494;51.796;10.952;2022-12-19T06:44:16;3.10;99.90
10883;DHT22;5494;51.796;10.952;2022-12-19T06:46:45;3.10;99.90
10883;DHT22;5494;51.796;10.952;2022-12-19T06:49:13;3.10;99.90
10883;DHT22;5494;51.796;10.952;2022-12-19T06:51:43;3.10;99.90
10883;DHT22;5494;51.796;10.952;2022-12-19T06:54:13;3.00;99.90
10883;DHT22;5494;51.796;10.952;2022-12-19T06:56:42;3.00;99.90
10883;DHT22;5494;51.796;10.952;2022-12-19T06:59:15;2.90;99.90
10883;DHT22;5494;51.796;10.952;2022-12-19T07:01:52;2.90;99.90
10883;DHT22;5494;51.796;10.952;2022-12-19T07:04:28;2.80;99.90
10883;DHT22;5494;51.796;10.952;2022-12-19T07:07:00;2.70;99.90
10883;DHT22;5494;51.796;10.952;2022-12-19T07:09:30;2.70;99.90
10883;DHT22;5494;51.796;10.952;2022-12-19T07:12:00;2.70;99.90
10883;DHT22;5494;51.796;10.952;2022-12-19T07:14:28;2.70;99.90
10883;DHT22;5494;51.796;10.952;2022-12-19T07:16:57;2.70;99.90
10883;DHT22;5494;51.796;10.952;2022-12-19T07:19:30;2.60;99.90
10883;DHT22;5494;51.796;10.952;2022-12-19T07:22:02;2.60;99.90
10883;DHT22;5494;51.796;10.952;2022-12-19T07:24:31;2.50;99.90
10883;DHT22;5494;51.796;10.952;2022-12-19T07:27:01;2.50;99.90
10883;DHT22;5494;51.796;10.952;2022-12-19T07:29:31;2.40;99.90
10883;DHT22;5494;51.796;10.952;2022-12-19T07:31:59;2.30;99.90
10883;DHT22;5494;51.796;10.952;2022-12-19T07:34:27;2.20;99.90
10883;DHT22;5494;51.796;10.952;2022-12-19T07:36:56;2.10;99.90
10883;DHT22;5494;51.796;10.952;2022-12-19T07:39:26;2.20;99.90
10883;DHT22;5494;51.796;10.952;2022-12-19T07:41:54;2.30;99.90
10883;DHT22;5494;51.796;10.952;2022-12-19T07:44:31;2.40;99.90
10883;DHT22;5494;51.796;10.952;2022-12-19T07:46:59;2.50;99.90
10883;DHT22;5494;51.796;10.952;2022-12-19T07:49:27;2.50;99.90
10883;DHT22;5494;51.796;10.952;2022-12-19T07:51:56;2.50;99.90
10883;DHT22;5494;51.796;10.952;2022-12-19T07:54:24;2.60;99.90
10883;DHT22;5494;51.796;10.952;2022-12-19T07:56:56;2.70;99.90
10883;DHT22;5494;51.796;10.952;2022-12-19T07:59:24;2.70;99.90
10883;DHT22;5494;51.796;10.952;2022-12-19T08:02:00;2.90;99.90
10883;DHT22;5494;51.796;10.952;2022-12-19T08:04:28;2.90;99.90
10883;DHT22;5494;51.796;10.952;2022-12-19T08:06:56;3.00;99.90
10883;DHT22;5494;51.796;10.952;2022-12-19T08:09:26;3.00;99.90
10883;DHT22;5494;51.796;10.952;2022-12-19T08:11:54;3.00;99.90
10883;DHT22;5494;51.796;10.952;2022-12-19T08:14:22;3.00;99.90
10883;DHT22;5494;51.796;10.952;2022-12-19T08:16:51;3.00;99.90
10883;DHT22;5494;51.796;10.952;2022-12-19T08:19:39;3.00;99.90
10883;DHT22;5494;51.796;10.952;2022-12-19T08:22:07;3.10;99.90
10883;DHT22;5494;51.796;10.952;2022-12-19T08:24:36;3.00;99.90
10883;DHT22;5494;51.796;10.952;2022-12-19T08:27:04;4.00;99.90
10883;DHT22;5494;51.796;10.952;2022-12-19T08:29:32;3.10;99.90
10883;DHT22;5494;51.796;10.952;2022-12-19T08:32:00;3.10;99.90
10883;DHT22;5494;51.796;10.952;2022-12-19T08:34:29;3.20;99.90
10883;DHT22;5494;51.796;10.952;2022-12-19T08:36:57;3.20;99.90
10883;DHT22;5494;51.796;10.952;2022-12-19T08:39:25;3.20;99.90
10883;DHT22;5494;51.796;10.952;2022-12-19T08:41:54;3.20;99.90
10883;DHT22;5494;51.796;10.952;2022-12-19T08:44:22;3.30;99.90
10883;DHT22;5494;51.796;10.952;2022-12-19T08:46:50;3.30;99.90
10883;DHT22;5494;51.796;10.952;2022-12-19T08:49:19;3.30;99.90
10883;DHT22;5494;51.796;10.952;2022-12-19T08:51:47;3.40;99.90
10883;DHT22;5494;51.796;10.952;2022-12-19T08:54:15;3.50;99.90
10883;DHT22;5494;51.796;10.952;2022-12-19T08:56:43;3.50;99.90
10883;DHT22;5494;51.796;10.952;2022-12-19T08:59:14;3.50;99.90
10883;DHT22;5494;51.796;10.952;2022-12-19T09:01:58;3.50;99.90
10883;DHT22;5494;51.796;10.952;2022-12-19T09:04:27;3.50;99.90
10883;DHT22;5494;51.796;10.952;2022-12-19T09:07:16;3.50;99.90
10883;DHT22;5494;51.796;10.952;2022-12-19T09:09:44;3.50;99.90
10883;DHT22;5494;51.796;10.952;2022-12-19T09:12:14;3.40;99.90
10883;DHT22;5494;51.796;10.952;2022-12-19T09:14:44;3.40;99.90
10883;DHT22;5494;51.796;10.952;2022-12-19T09:17:13;3.40;99.90
10883;DHT22;5494;51.796;10.952;2022-12-19T09:19:41;3.30;99.90
10883;DHT22;5494;51.796;10.952;2022-12-19T09:22:14;3.40;99.90
10883;DHT22;5494;51.796;10.952;2022-12-19T09:24:43;3.40;99.90
10883;DHT22;5494;51.796;10.952;2022-12-19T09:27:11;3.40;99.90
10883;DHT22;5494;51.796;10.952;2022-12-19T09:29:40;3.40;99.90
10883;DHT22;5494;51.796;10.952;2022-12-19T09:32:10;3.40;99.90
10883;DHT22;5494;51.796;10.952;2022-12-19T09:34:38;3.40;99.90
10883;DHT22;5494;51.796;10.952;2022-12-19T09:37:08;3.40;99.90
10883;DHT22;5494;51.796;10.952;2022-12-19T09:39:43;3.50;99.90
10883;DHT22;5494;51.796;10.952;2022-12-19T09:45:32;3.50;99.90
10883;DHT22;5494;51.796;10.952;2022-12-19T09:48:13;3.50;99.90
10883;DHT22;5494;51.796;10.952;2022-12-19T09:50:55;3.50;99.90
10883;DHT22;5494;51.796;10.952;2022-12-19T09:53:41;3.50;99.90
10883;DHT22;5494;51.796;10.952;2022-12-19T09:56:21;3.50;99.90
10883;DHT22;5494;51.796;10.952;2022-12-19T09:58:59;3.50;99.90
10883;DHT22;5494;51.796;10.952;2022-12-19T10:01:34;3.60;99.90
10883;DHT22;5494;51.796;10.952;2022-12-19T10:04:13;3.50;99.90
10883;DHT22;5494;51.796;10.952;2022-12-19T10:06:44;3.60;99.90
10883;DHT22;5494;51.796;10.952;2022-12-19T10:09:33;3.60;99.90
10883;DHT22;5494;51.796;10.952;2022-12-19T10:12:35;3.60;99.90
10883;DHT22;5494;51.796;10.952;2022-12-19T10:15:26;3.70;99.90
10883;DHT22;5494;51.796;10.952;2022-12-19T10:18:16;3.70;99.90
10883;DHT22;5494;51.796;10.952;2022-12-19T10:21:05;3.70;99.90
10883;DHT22;5494;51.796;10.952;2022-12-19T10:23:51;3.80;99.90
10883;DHT22;5494;51.796;10.952;2022-12-19T10:26:47;3.80;99.90
10883;DHT22;5494;51.796;10.952;2022-12-19T10:29:37;3.80;99.90
10883;DHT22;5494;51.796;10.952;2022-12-19T10:32:22;3.80;99.90
10883;DHT22;5494;51.796;10.952;2022-12-19T10:34:56;3.80;99.90
10883;DHT22;5494;51.796;10.952;2022-12-19T10:37:28;3.80;99.90
10883;DHT22;5494;51.796;10.952;2022-12-19T10:40:16;3.80;99.90
10883;DHT22;5494;51.796;10.952;2022-12-19T10:42:58;3.90;99.90
10883;DHT22;5494;51.796;10.952;2022-12-19T10:45:43;3.90;99.90
10883;DHT22;5494;51.796;10.952;2022-12-19T10:48:17;4.00;99.90
10883;DHT22;5494;51.796;10.952;2022-12-19T10:50:56;4.00;99.90
10883;DHT22;5494;51.796;10.952;2022-12-19T10:53:33;4.00;99.90
10883;DHT22;5494;51.796;10.952;2022-12-19T10:56:11;4.10;99.90
10883;DHT22;5494;51.796;10.952;2022-12-19T10:58:50;4.20;99.90
10883;DHT22;5494;51.796;10.952;2022-12-19T11:01:25;4.20;99.90
10883;DHT22;5494;51.796;10.952;2022-12-19T11:04:13;4.30;99.90
10883;DHT22;5494;51.796;10.952;2022-12-19T11:06:52;4.30;99.90
10883;DHT22;5494;51.796;10.952;2022-12-19T11:09:37;4.30;99.90
10883;DHT22;5494;51.796;10.952;2022-12-19T11:12:12;4.40;99.90
10883;DHT22;5494;51.796;10.952;2022-12-19T11:15:14;4.40;99.90
10883;DHT22;5494;51.796;10.952;2022-12-19T11:18:06;4.50;99.90
10883;DHT22;5494;51.796;10.952;2022-12-19T11:20:58;4.50;99.90
10883;DHT22;5494;51.796;10.952;2022-12-19T11:23:51;4.60;99.90
10883;DHT22;5494;51.796;10.952;2022-12-19T11:26:46;4.60;99.90
10883;DHT22;5494;51.796;10.952;2022-12-19T11:29:43;4.60;99.90
10883;DHT22;5494;51.796;10.952;2022-12-19T11:32:36;4.70;99.90
10883;DHT22;5494;51.796;10.952;2022-12-19T11:35:16;4.70;99.90
10883;DHT22;5494;51.796;10.952;2022-12-19T11:37:53;4.70;99.90
10883;DHT22;5494;51.796;10.952;2022-12-19T11:40:31;4.70;99.90
10883;DHT22;5494;51.796;10.952;2022-12-19T11:43:14;4.80;99.90
10883;DHT22;5494;51.796;10.952;2022-12-19T11:46:13;4.80;99.90
10883;DHT22;5494;51.796;10.952;2022-12-19T11:48:52;4.80;99.90
10883;DHT22;5494;51.796;10.952;2022-12-19T11:51:29;4.80;99.90
10883;DHT22;5494;51.796;10.952;2022-12-19T11:54:06;4.80;99.90
10883;DHT22;5494;51.796;10.952;2022-12-19T11:56:42;4.80;99.90
10883;DHT22;5494;51.796;10.952;2022-12-19T11:59:16;4.80;99.90
10883;DHT22;5494;51.796;10.952;2022-12-19T12:02:08;4.90;99.90
10883;DHT22;5494;51.796;10.952;2022-12-19T12:05:04;4.90;99.90
10883;DHT22;5494;51.796;10.952;2022-12-19T12:07:52;5.00;99.90
10883;DHT22;5494;51.796;10.952;2022-12-19T12:11:02;5.00;99.90
10883;DHT22;5494;51.796;10.952;2022-12-19T12:14:14;5.00;99.90
10883;DHT22;5494;51.796;10.952;2022-12-19T12:17:35;5.10;99.90
10883;DHT22;5494;51.796;10.952;2022-12-19T12:20:38;5.10;99.90
10883;DHT22;5494;51.796;10.952;2022-12-19T12:23:52;5.10;99.90
10883;DHT22;5494;51.796;10.952;2022-12-19T12:26:53;5.20;99.90
10883;DHT22;5494;51.796;10.952;2022-12-19T12:29:56;5.20;99.90
10883;DHT22;5494;51.796;10.952;2022-12-19T12:33:01;5.30;99.90
10883;DHT22;5494;51.796;10.952;2022-12-19T12:36:01;5.30;99.90
10883;DHT22;5494;51.796;10.952;2022-12-19T12:39:02;5.40;99.90
10883;DHT22;5494;51.796;10.952;2022-12-19T12:41:39;5.40;99.90
10883;DHT22;5494;51.796;10.952;2022-12-19T12:44:34;5.40;99.90
10883;DHT22;5494;51.796;10.952;2022-12-19T12:47:16;5.40;99.90
10883;DHT22;5494;51.796;10.952;2022-12-19T12:49:49;5.50;99.90
10883;DHT22;5494;51.796;10.952;2022-12-19T12:52:26;5.50;99.90
10883;DHT22;5494;51.796;10.952;2022-12-19T12:54:59;5.50;99.90
10883;DHT22;5494;51.796;10.952;2022-12-19T12:57:34;5.50;99.90
10883;DHT22;5494;51.796;10.952;2022-12-19T13:00:16;5.50;99.90
10883;DHT22;5494;51.796;10.952;2022-12-19T13:02:54;5.50;99.90
10883;DHT22;5494;51.796;10.952;2022-12-19T13:05:36;5.60;99.90
10883;DHT22;5494;51.796;10.952;2022-12-19T13:08:31;5.60;99.90
10883;DHT22;5494;51.796;10.952;2022-12-19T13:11:04;5.60;99.90
10883;DHT22;5494;51.796;10.952;2022-12-19T13:13:50;5.60;99.90
10883;DHT22;5494;51.796;10.952;2022-12-19T13:16:47;5.70;99.90
10883;DHT22;5494;51.796;10.952;2022-12-19T13:19:23;5.70;99.90
10883;DHT22;5494;51.796;10.952;2022-12-19T13:22:20;5.70;99.90
10883;DHT22;5494;51.796;10.952;2022-12-19T13:25:36;5.80;99.90
10883;DHT22;5494;51.796;10.952;2022-12-19T13:28:37;5.80;99.90
10883;DHT22;5494;51.796;10.952;2022-12-19T13:31:18;5.80;99.90
10883;DHT22;5494;51.796;10.952;2022-12-19T13:34:17;5.80;99.90
10883;DHT22;5494;51.796;10.952;2022-12-19T13:36:53;5.80;99.90
10883;DHT22;5494;51.796;10.952;2022-12-19T13:39:56;5.80;99.90
10883;DHT22;5494;51.796;10.952;2022-12-19T13:42:44;5.80;99.90
10883;DHT22;5494;51.796;10.952;2022-12-19T13:45:39;5.70;99.90
10883;DHT22;5494;51.796;10.952;2022-12-19T13:48:19;5.70;99.90
10883;DHT22;5494;51.796;10.952;2022-12-19T13:50:59;5.80;99.90
10883;DHT22;5494;51.796;10.952;2022-12-19T13:53:34;5.80;99.90
10883;DHT22;5494;51.796;10.952;2022-12-19T13:56:09;5.80;99.90
10883;DHT22;5494;51.796;10.952;2022-12-19T13:58:44;5.80;99.90
10883;DHT22;5494;51.796;10.952;2022-12-19T14:01:22;5.80;99.90
10883;DHT22;5494;51.796;10.952;2022-12-19T14:03:55;5.90;99.90
10883;DHT22;5494;51.796;10.952;2022-12-19T14:06:39;5.90;99.90
10883;DHT22;5494;51.796;10.952;2022-12-19T14:09:21;6.00;99.90
10883;DHT22;5494;51.796;10.952;2022-12-19T14:12:18;6.00;99.90
10883;DHT22;5494;51.796;10.952;2022-12-19T14:15:27;6.00;99.90
10883;DHT22;5494;51.796;10.952;2022-12-19T14:18:06;6.10;99.90
10883;DHT22;5494;51.796;10.952;2022-12-19T14:21:13;6.10;99.90
10883;DHT22;5494;51.796;10.952;2022-12-19T14:24:15;6.20;99.90
10883;DHT22;5494;51.796;10.952;2022-12-19T14:26:47;6.20;99.90
10883;DHT22;5494;51.796;10.952;2022-12-19T14:29:45;6.20;99.90
10883;DHT22;5494;51.796;10.952;2022-12-19T14:32:39;6.30;99.90
10883;DHT22;5494;51.796;10.952;2022-12-19T14:35:32;6.30;99.90
10883;DHT22;5494;51.796;10.952;2022-12-19T14:38:24;6.40;99.90
10883;DHT22;5494;51.796;10.952;2022-12-19T14:41:35;6.40;99.90
10883;DHT22;5494;51.796;10.952;2022-12-19T14:44:46;6.30;99.90
10883;DHT22;5494;51.796;10.952;2022-12-19T14:47:38;6.30;99.90
10883;DHT22;5494;51.796;10.952;2022-12-19T14:50:30;6.40;99.90
10883;DHT22;5494;51.796;10.952;2022-12-19T14:53:21;6.40;99.90
10883;DHT22;5494;51.796;10.952;2022-12-19T14:56:12;6.30;99.90
10883;DHT22;5494;51.796;10.952;2022-12-19T14:59:03;6.40;99.90
10883;DHT22;5494;51.796;10.952;2022-12-19T15:01:33;6.40;99.90
10883;DHT22;5494;51.796;10.952;2022-12-19T15:04:05;6.40;99.90
10883;DHT22;5494;51.796;10.952;2022-12-19T15:07:04;6.40;99.90
10883;DHT22;5494;51.796;10.952;2022-12-19T15:09:50;6.50;99.90
10883;DHT22;5494;51.796;10.952;2022-12-19T15:12:54;6.50;99.90
10883;DHT22;5494;51.796;10.952;2022-12-19T15:16:04;6.50;99.90
10883;DHT22;5494;51.796;10.952;2022-12-19T15:18:38;6.50;99.90
10883;DHT22;5494;51.796;10.952;2022-12-19T15:21:10;6.50;99.90
10883;DHT22;5494;51.796;10.952;2022-12-19T15:23:40;6.50;99.90
10883;DHT22;5494;51.796;10.952;2022-12-19T15:26:11;6.50;99.90
10883;DHT22;5494;51.796;10.952;2022-12-19T15:28:45;6.50;99.90
10883;DHT22;5494;51.796;10.952;2022-12-19T15:31:27;6.60;99.90
10883;DHT22;5494;51.796;10.952;2022-12-19T15:34:05;6.60;99.90
10883;DHT22;5494;51.796;10.952;2022-12-19T15:37:09;6.60;99.90
10883;DHT22;5494;51.796;10.952;2022-12-19T15:39:38;6.60;99.90
10883;DHT22;5494;51.796;10.952;2022-12-19T15:42:15;6.50;99.90
10883;DHT22;5494;51.796;10.952;2022-12-19T15:44:47;6.50;99.90
10883;DHT22;5494;51.796;10.952;2022-12-19T15:47:22;6.40;99.90
10883;DHT22;5494;51.796;10.952;2022-12-19T15:49:55;6.40;99.90
10883;DHT22;5494;51.796;10.952;2022-12-19T15:52:28;6.40;99.90
10883;DHT22;5494;51.796;10.952;2022-12-19T15:54:56;6.40;99.90
10883;DHT22;5494;51.796;10.952;2022-12-19T15:57:28;6.50;99.90
10883;DHT22;5494;51.796;10.952;2022-12-19T16:00:01;6.50;99.90
10883;DHT22;5494;51.796;10.952;2022-12-19T16:02:36;6.50;99.90
10883;DHT22;5494;51.796;10.952;2022-12-19T16:05:25;6.60;99.90
10883;DHT22;5494;51.796;10.952;2022-12-19T16:07:55;6.60;99.90
10883;DHT22;5494;51.796;10.952;2022-12-19T16:10:24;6.60;99.90
10883;DHT22;5494;51.796;10.952;2022-12-19T16:12:54;6.70;99.90
10883;DHT22;5494;51.796;10.952;2022-12-19T16:15:25;6.70;99.90
10883;DHT22;5494;51.796;10.952;2022-12-19T16:17:58;6.70;99.90
10883;DHT22;5494;51.796;10.952;2022-12-19T16:20:30;6.60;99.90
10883;DHT22;5494;51.796;10.952;2022-12-19T16:23:01;6.60;99.90
10883;DHT22;5494;51.796;10.952;2022-12-19T16:25:33;6.60;99.90
10883;DHT22;5494;51.796;10.952;2022-12-19T16:28:06;6.60;99.90
10883;DHT22;5494;51.796;10.952;2022-12-19T16:30:41;6.60;99.90
10883;DHT22;5494;51.796;10.952;2022-12-19T16:33:18;6.50;99.90
10883;DHT22;5494;51.796;10.952;2022-12-19T16:35:48;6.40;99.90
10883;DHT22;5494;51.796;10.952;2022-12-19T16:38:33;6.40;99.90
10883;DHT22;5494;51.796;10.952;2022-12-19T16:41:02;6.40;99.90
10883;DHT22;5494;51.796;10.952;2022-12-19T16:43:31;6.30;99.90
10883;DHT22;5494;51.796;10.952;2022-12-19T16:46:04;6.40;99.90
10883;DHT22;5494;51.796;10.952;2022-12-19T16:48:35;6.40;99.90
10883;DHT22;5494;51.796;10.952;2022-12-19T16:51:06;6.40;99.90
10883;DHT22;5494;51.796;10.952;2022-12-19T16:53:42;6.40;99.90
10883;DHT22;5494;51.796;10.952;2022-12-19T16:56:20;6.30;99.90
10883;DHT22;5494;51.796;10.952;2022-12-19T16:58:51;6.40;99.90